createdAt,value
2018-05-25T00:01:51.811Z,18.90
2018-05-25T00:04:19.667Z,19.03
2018-05-25T00:06:47.297Z,19.27
2018-05-25T00:09:14.901Z,16.50
2018-05-25T00:11:42.484Z,18.40
2018-05-25T00:14:10.200Z,19.13
2018-05-25T00:16:37.802Z,19.80
2018-05-25T00:19:05.401Z,21.27
2018-05-25T00:21:33.394Z,17.63
2018-05-25T00:24:01.166Z,17.17
2018-05-25T00:26:28.759Z,15.70
2018-05-25T00:28:56.362Z,14.33
2018-05-25T00:31:24.008Z,20.17
2018-05-25T00:33:51.589Z,17.90
2018-05-25T00:36:19.280Z,16.37
2018-05-25T00:38:46.879Z,19.40
2018-05-25T00:41:14.469Z,17.73
2018-05-25T00:43:42.136Z,19.87
2018-05-25T00:46:09.974Z,17.57
2018-05-25T00:48:37.793Z,24.93
2018-05-25T00:51:05.612Z,20.93
2018-05-25T00:53:33.217Z,24.37
2018-05-25T00:56:00.828Z,18.93
2018-05-25T00:58:28.567Z,15.60
2018-05-25T01:00:56.208Z,20.83
2018-05-25T01:03:23.985Z,17.37
2018-05-25T01:05:51.661Z,19.50
2018-05-25T01:08:19.244Z,18.63
2018-05-25T01:10:46.824Z,14.83
2018-05-25T01:13:14.424Z,18.67
2018-05-25T01:15:42.016Z,20.57
2018-05-25T01:18:09.817Z,21.77
2018-05-25T01:20:37.550Z,20.27
2018-05-25T01:23:05.451Z,18.70
2018-05-25T01:25:33.033Z,13.93
2018-05-25T01:28:00.619Z,16.60
2018-05-25T01:30:28.210Z,18.67
2018-05-25T01:32:55.926Z,17.90
2018-05-25T01:35:23.685Z,17.17
2018-05-25T01:37:51.419Z,16.77
2018-05-25T01:40:19.004Z,18.60
2018-05-25T01:42:46.620Z,19.23
2018-05-25T01:45:14.393Z,18.30
2018-05-25T01:47:42.233Z,23.97
2018-05-25T01:50:09.815Z,24.37
2018-05-25T01:52:37.448Z,21.93
2018-05-25T01:55:05.066Z,19.07
2018-05-25T01:57:32.657Z,20.27
2018-05-25T02:00:00.264Z,22.20
2018-05-25T02:02:28.041Z,22.10
2018-05-25T02:04:55.648Z,18.70
2018-05-25T02:07:23.476Z,21.73
2018-05-25T02:09:51.235Z,18.10
2018-05-25T02:12:19.012Z,21.90
2018-05-25T02:14:46.831Z,20.97
2018-05-25T02:17:14.424Z,17.20
2018-05-25T02:19:42.017Z,19.30
2018-05-25T02:22:09.612Z,16.07
2018-05-25T02:24:37.198Z,17.10
2018-05-25T02:27:04.858Z,18.10
2018-05-25T02:29:32.476Z,17.87
2018-05-25T02:32:00.060Z,16.37
2018-05-25T02:34:27.653Z,14.53
2018-05-25T02:36:55.236Z,17.37
2018-05-25T02:39:22.840Z,17.97
2018-05-25T02:41:50.628Z,18.87
2018-05-25T02:44:18.548Z,15.50
2018-05-25T02:46:46.368Z,20.03
2018-05-25T02:49:13.952Z,21.97
2018-05-25T02:51:41.673Z,19.37
2018-05-25T02:54:09.256Z,15.43
2018-05-25T02:56:36.837Z,18.63
2018-05-25T02:59:04.424Z,18.97
2018-05-25T03:01:32.086Z,15.43
2018-05-25T03:03:59.676Z,15.93
2018-05-25T03:06:27.277Z,18.13
2018-05-25T03:08:55.030Z,19.90
2018-05-25T03:11:22.608Z,24.37
2018-05-25T03:13:50.230Z,16.57
2018-05-25T03:16:17.860Z,19.17
2018-05-25T03:18:45.581Z,20.57
2018-05-25T03:21:13.419Z,100.37
2018-05-25T03:23:41.237Z,39.50
2018-05-25T03:26:08.940Z,15.57
2018-05-25T03:28:36.488Z,20.77
2018-05-25T03:31:04.120Z,16.93
2018-05-25T03:33:31.912Z,18.83
2018-05-25T03:35:59.697Z,17.73
2018-05-25T03:38:27.447Z,17.50
2018-05-25T03:40:55.024Z,18.90
2018-05-25T03:43:22.630Z,18.13
2018-05-25T03:45:50.337Z,17.27
2018-05-25T03:48:17.957Z,15.33
2018-05-25T03:50:45.536Z,18.13
2018-05-25T03:53:13.176Z,20.33
2018-05-25T03:55:40.769Z,15.23
2018-05-25T03:58:08.595Z,16.67
2018-05-25T04:00:48.152Z,12.77
2018-05-25T04:03:15.767Z,22.40
2018-05-25T04:05:43.356Z,17.33
2018-05-25T04:08:11.434Z,21.33
2018-05-25T04:10:40.530Z,18.97
2018-05-25T04:13:09.565Z,18.87
2018-05-25T04:15:37.375Z,14.40
2018-05-25T04:18:04.984Z,17.70
2018-05-25T04:20:32.723Z,18.07
2018-05-25T04:23:00.320Z,19.57
2018-05-25T04:25:28.103Z,15.63
2018-05-25T04:27:55.845Z,20.77
2018-05-25T04:30:23.435Z,14.23
2018-05-25T04:32:51.292Z,16.67
2018-05-25T04:35:18.884Z,16.10
2018-05-25T04:37:47.540Z,15.60
2018-05-25T04:40:15.198Z,16.13
2018-05-25T04:42:42.780Z,18.43
2018-05-25T04:45:10.562Z,12.60
2018-05-25T04:47:38.153Z,15.10
2018-05-25T04:50:05.821Z,16.00
2018-05-25T04:52:33.445Z,13.73
2018-05-25T04:55:01.148Z,21.60
2018-05-25T04:57:28.746Z,14.30
2018-05-25T04:59:56.563Z,13.90
2018-05-25T05:02:24.425Z,18.07
2018-05-25T05:04:52.044Z,17.17
2018-05-25T05:07:19.625Z,13.63
2018-05-25T05:09:47.366Z,15.07
2018-05-25T05:12:14.956Z,15.57
2018-05-25T05:14:42.648Z,14.77
2018-05-25T05:17:10.245Z,18.83
2018-05-25T05:19:38.022Z,15.97
2018-05-25T05:22:05.774Z,12.13
2018-05-25T05:24:33.385Z,19.00
2018-05-25T05:27:01.033Z,14.17
2018-05-25T05:29:28.711Z,18.37
2018-05-25T05:31:56.309Z,15.03
2018-05-25T05:34:23.974Z,15.53
2018-05-25T05:36:51.560Z,17.57
2018-05-25T05:39:19.144Z,11.63
2018-05-25T05:41:46.855Z,18.67
2018-05-25T05:44:14.434Z,19.37
2018-05-25T05:46:42.246Z,18.27
2018-05-25T05:49:09.832Z,12.27
2018-05-25T05:51:37.990Z,16.30
2018-05-25T05:54:05.612Z,13.50
2018-05-25T05:56:33.199Z,20.53
2018-05-25T05:59:00.841Z,16.30
2018-05-25T06:01:28.460Z,17.53
2018-05-25T06:03:56.074Z,14.87
2018-05-25T06:06:23.893Z,18.27
2018-05-25T06:08:51.711Z,19.23
2018-05-25T06:11:19.300Z,15.27
2018-05-25T06:13:46.876Z,13.20
2018-05-25T06:16:14.532Z,15.50
2018-05-25T06:18:42.392Z,19.30
2018-05-25T06:21:09.977Z,9.83
2018-05-25T06:23:37.742Z,16.17
2018-05-25T06:26:05.349Z,12.80
2018-05-25T06:28:33.019Z,15.13
2018-05-25T06:31:18.035Z,12.07
2018-05-25T06:33:45.604Z,13.77
2018-05-25T06:36:13.245Z,14.10
2018-05-25T06:38:40.887Z,11.33
2018-05-25T06:41:08.475Z,11.37
2018-05-25T06:43:39.061Z,11.30
2018-05-25T06:46:06.739Z,12.47
2018-05-25T06:48:34.490Z,9.17
2018-05-25T06:51:02.074Z,11.33
2018-05-25T06:53:29.660Z,11.37
2018-05-25T06:55:58.149Z,9.53
2018-05-25T06:58:25.729Z,10.30
2018-05-25T07:00:53.763Z,16.43
2018-05-25T07:03:21.382Z,9.57
2018-05-25T07:05:49.025Z,10.07
2018-05-25T07:08:16.605Z,9.20
2018-05-25T07:10:44.183Z,9.27
2018-05-25T07:13:11.808Z,11.87
2018-05-25T07:15:39.566Z,10.33
2018-05-25T07:18:07.192Z,9.47
2018-05-25T07:20:34.786Z,9.20
2018-05-25T07:23:02.360Z,13.83
2018-05-25T07:25:30.065Z,9.67
2018-05-25T07:27:57.637Z,8.97
2018-05-25T07:30:25.208Z,8.83
2018-05-25T07:32:52.791Z,9.77
2018-05-25T07:35:20.386Z,8.27
2018-05-25T07:37:48.051Z,10.40
2018-05-25T07:40:15.660Z,7.70
2018-05-25T07:42:43.289Z,7.93
2018-05-25T07:45:10.872Z,11.53
2018-05-25T07:47:38.444Z,12.10
2018-05-25T07:50:06.039Z,8.37
2018-05-25T07:52:33.613Z,9.00
2018-05-25T07:55:01.196Z,10.03
2018-05-25T07:57:28.773Z,10.40
2018-05-25T07:59:56.410Z,9.30
2018-05-25T08:02:23.997Z,8.60
2018-05-25T08:04:51.612Z,6.70
2018-05-25T08:07:19.192Z,8.73
2018-05-25T08:09:46.773Z,12.07
2018-05-25T08:12:14.380Z,7.57
2018-05-25T08:14:41.960Z,11.20
2018-05-25T08:17:09.707Z,9.93
2018-05-25T08:19:37.288Z,11.80
2018-05-25T08:22:04.871Z,11.73
2018-05-25T08:24:32.460Z,12.10
2018-05-25T08:27:00.048Z,14.73
2018-05-25T08:29:27.872Z,9.67
2018-05-25T08:31:55.452Z,10.30
2018-05-25T08:34:23.091Z,12.00
2018-05-25T08:36:50.690Z,6.23
2018-05-25T08:39:18.271Z,10.57
2018-05-25T08:41:45.852Z,8.57
2018-05-25T08:44:15.015Z,7.13
2018-05-25T08:46:42.613Z,8.97
2018-05-25T08:49:10.224Z,6.27
2018-05-25T08:51:37.833Z,7.73
2018-05-25T08:54:05.424Z,5.57
2018-05-25T08:56:33.005Z,6.97
2018-05-25T08:59:00.597Z,10.87
2018-05-25T09:01:28.677Z,6.33
2018-05-25T09:03:56.376Z,6.57
2018-05-25T09:06:23.953Z,8.67
2018-05-25T09:08:51.580Z,7.40
2018-05-25T09:11:19.616Z,10.13
2018-05-25T09:13:47.208Z,9.27
2018-05-25T09:16:15.280Z,10.07
2018-05-25T09:18:42.888Z,9.77
2018-05-25T09:21:10.473Z,9.33
2018-05-25T09:23:38.069Z,7.70
2018-05-25T09:26:05.940Z,11.03
2018-05-25T09:28:33.520Z,7.03
2018-05-25T09:31:01.096Z,6.30
2018-05-25T09:33:28.753Z,11.77
2018-05-25T09:35:56.324Z,9.43
2018-05-25T09:38:23.941Z,10.50
2018-05-25T09:40:51.527Z,9.03
2018-05-25T09:43:19.346Z,8.60
2018-05-25T09:45:46.929Z,11.07
2018-05-25T09:48:14.498Z,8.33
2018-05-25T09:50:42.091Z,6.67
2018-05-25T09:53:10.246Z,8.37
2018-05-25T09:55:37.877Z,9.80
2018-05-25T09:58:05.477Z,8.53
2018-05-25T10:00:33.081Z,7.30
2018-05-25T10:03:00.669Z,10.13
2018-05-25T10:05:28.393Z,9.23
2018-05-25T10:07:55.980Z,7.20
2018-05-25T10:10:23.568Z,6.53
2018-05-25T10:12:51.161Z,15.27
2018-05-25T10:15:18.741Z,8.53
2018-05-25T10:17:46.319Z,7.37
2018-05-25T10:20:13.977Z,11.47
2018-05-25T10:22:41.648Z,9.47
2018-05-25T10:25:10.351Z,8.87
2018-05-25T10:27:37.928Z,9.23
2018-05-25T10:30:07.295Z,11.73
2018-05-25T10:32:34.900Z,10.27
2018-05-25T10:35:02.624Z,12.90
2018-05-25T10:37:30.224Z,9.23
2018-05-25T10:39:57.850Z,8.53
2018-05-25T10:42:25.473Z,6.17
2018-05-25T10:44:53.071Z,9.20
2018-05-25T10:47:20.681Z,8.30
2018-05-25T10:49:48.261Z,11.13
2018-05-25T10:52:15.927Z,14.87
2018-05-25T10:54:43.470Z,9.93
2018-05-25T10:57:11.120Z,7.53
2018-05-25T10:59:38.699Z,11.87
2018-05-25T11:02:06.456Z,8.43
2018-05-25T11:04:34.040Z,9.03
2018-05-25T11:07:01.636Z,9.77
2018-05-25T11:09:29.237Z,8.73
2018-05-25T11:11:56.832Z,12.10
2018-05-25T11:14:24.477Z,7.73
2018-05-25T11:16:52.078Z,6.80
2018-05-25T11:19:19.672Z,10.97
2018-05-25T11:21:47.256Z,7.90
2018-05-25T11:24:14.843Z,10.57
2018-05-25T11:26:42.465Z,10.17
2018-05-25T11:29:10.045Z,6.73
2018-05-25T11:31:37.677Z,7.33
2018-05-25T11:34:05.600Z,8.37
2018-05-25T11:36:33.192Z,10.60
2018-05-25T11:39:00.809Z,18.83
2018-05-25T11:41:28.393Z,13.83
2018-05-25T11:43:56.013Z,8.90
2018-05-25T11:46:23.590Z,14.33
2018-05-25T11:48:51.280Z,12.70
2018-05-25T11:51:19.072Z,10.83
2018-05-25T11:53:46.648Z,6.93
2018-05-25T11:56:14.844Z,9.93
2018-05-25T11:58:42.425Z,8.73
2018-05-25T12:01:10.033Z,13.77
2018-05-25T12:03:37.612Z,9.90
2018-05-25T12:06:05.376Z,7.10
2018-05-25T12:08:32.956Z,7.33
2018-05-25T12:11:00.601Z,8.37
2018-05-25T12:13:28.188Z,9.57
2018-05-25T12:15:55.769Z,11.40
2018-05-25T12:18:23.400Z,8.60
2018-05-25T12:20:51.025Z,7.90
2018-05-25T12:23:18.669Z,6.67
2018-05-25T12:25:46.261Z,9.53
2018-05-25T12:28:14.024Z,11.17
2018-05-25T12:30:42.105Z,12.00
2018-05-25T12:33:09.700Z,9.73
2018-05-25T12:35:37.280Z,13.30
2018-05-25T12:38:05.041Z,7.60
2018-05-25T12:40:32.709Z,11.80
2018-05-25T12:43:00.278Z,9.97
2018-05-25T12:45:27.920Z,11.97
2018-05-25T12:47:55.508Z,7.43
2018-05-25T12:50:23.082Z,7.43
2018-05-25T12:52:50.674Z,8.17
2018-05-25T12:55:18.266Z,7.27
2018-05-25T12:57:45.865Z,7.53
2018-05-25T13:00:13.448Z,9.30
2018-05-25T13:02:41.050Z,6.83
2018-05-25T13:05:08.844Z,7.23
2018-05-25T13:07:36.432Z,6.57
2018-05-25T13:10:04.240Z,7.43
2018-05-25T13:12:31.856Z,10.30
2018-05-25T13:14:59.432Z,8.17
2018-05-25T13:17:27.063Z,8.87
2018-05-25T13:19:54.656Z,8.30
2018-05-25T13:22:22.249Z,14.97
2018-05-25T13:24:49.888Z,12.97
2018-05-25T13:27:17.472Z,12.93
2018-05-25T13:29:45.273Z,12.17
2018-05-25T13:32:12.851Z,13.40
2018-05-25T13:34:40.555Z,11.47
2018-05-25T13:37:08.181Z,11.20
2018-05-25T13:39:35.817Z,11.77
2018-05-25T13:42:03.493Z,12.17
2018-05-25T13:44:31.080Z,11.70
2018-05-25T13:46:58.681Z,10.83
2018-05-25T13:49:26.362Z,11.37
2018-05-25T13:51:53.968Z,14.33
2018-05-25T13:54:21.563Z,11.87
2018-05-25T13:56:49.223Z,13.33
2018-05-25T13:59:16.837Z,12.63
2018-05-25T14:01:44.437Z,11.53
2018-05-25T14:04:12.121Z,20.60
2018-05-25T14:06:39.803Z,21.67
2018-05-25T14:09:07.516Z,20.20
2018-05-25T14:11:35.108Z,13.73
2018-05-25T14:14:02.851Z,16.87
2018-05-25T14:16:30.444Z,17.20
2018-05-25T14:18:58.085Z,17.40
2018-05-25T14:21:25.693Z,16.73
2018-05-25T14:23:53.277Z,18.63
2018-05-25T14:26:20.881Z,16.63
2018-05-25T14:28:48.460Z,16.87
2018-05-25T14:31:16.201Z,17.27
2018-05-25T14:33:43.886Z,17.13
2018-05-25T14:36:11.496Z,17.40
2018-05-25T14:38:39.094Z,19.57
2018-05-25T14:41:07.680Z,18.00
2018-05-25T14:43:35.337Z,26.33
2018-05-25T14:46:02.971Z,21.83
2018-05-25T14:48:30.572Z,19.20
2018-05-25T14:50:58.185Z,18.10
2018-05-25T14:53:25.771Z,17.27
2018-05-25T14:55:53.414Z,18.87
2018-05-25T14:58:21.012Z,17.97
2018-05-25T15:00:48.637Z,19.37
2018-05-25T15:03:16.232Z,22.87
2018-05-25T15:05:43.881Z,19.37
2018-05-25T15:08:11.581Z,23.93
2018-05-25T15:10:39.173Z,18.47
2018-05-25T15:13:06.865Z,20.23
2018-05-25T15:15:34.477Z,23.00
2018-05-25T15:18:02.094Z,21.97
2018-05-25T15:20:29.693Z,20.53
2018-05-25T15:22:57.279Z,22.93
2018-05-25T15:25:25.001Z,21.17
2018-05-25T15:27:52.609Z,25.77
2018-05-25T15:30:20.272Z,22.97
2018-05-25T15:32:47.980Z,27.63
2018-05-25T15:35:15.620Z,25.97
2018-05-25T15:37:43.333Z,21.77
2018-05-25T15:40:11.867Z,25.57
2018-05-25T15:42:39.452Z,22.70
2018-05-25T15:50:12.768Z,23.97
2018-05-25T15:52:40.438Z,26.53
2018-05-25T15:55:08.414Z,23.13
2018-05-25T15:57:35.968Z,22.23
2018-05-25T16:00:03.802Z,26.47
2018-05-25T16:02:31.394Z,23.63
2018-05-25T16:04:59.000Z,23.40
2018-05-25T16:07:26.678Z,24.87
2018-05-25T16:09:54.249Z,26.23
2018-05-25T16:12:22.145Z,22.70
2018-05-25T16:14:49.786Z,23.37
2018-05-25T16:17:17.400Z,24.00
2018-05-25T16:19:44.957Z,22.87
2018-05-25T16:22:12.531Z,62.07
2018-05-25T16:24:40.158Z,106.20
2018-05-25T16:27:07.721Z,108.57
2018-05-25T16:29:35.357Z,52.73
2018-05-25T16:32:03.230Z,43.50
2018-05-25T16:34:30.845Z,29.43
2018-05-25T16:36:58.481Z,23.33
2018-05-25T16:39:26.044Z,22.37
2018-05-25T16:41:53.777Z,21.60
2018-05-25T16:44:21.493Z,25.00
2018-05-25T16:46:49.217Z,23.73
2018-05-25T16:49:16.915Z,36.83
2018-05-25T16:51:44.542Z,35.07
2018-05-25T16:54:12.100Z,31.10
2018-05-25T16:56:39.841Z,26.60
2018-05-25T16:59:07.521Z,17.77
2018-05-25T17:01:35.131Z,19.27
2018-05-25T17:04:02.942Z,19.33
2018-05-25T17:06:30.646Z,17.13
2018-05-25T17:08:58.204Z,21.90
2018-05-25T17:11:25.785Z,18.77
2018-05-25T17:13:53.338Z,17.23
2018-05-25T17:16:20.907Z,21.80
2018-05-25T17:18:48.522Z,16.87
2018-05-25T17:21:16.375Z,24.33
2018-05-25T17:23:43.991Z,21.50
2018-05-25T17:26:11.567Z,22.43
2018-05-25T17:28:39.135Z,19.00
2018-05-25T17:31:06.802Z,18.03
2018-05-25T17:33:34.417Z,17.67
2018-05-25T17:36:02.077Z,15.93
2018-05-25T17:38:29.637Z,16.93
2018-05-25T17:40:57.310Z,13.43
2018-05-25T17:43:24.957Z,20.63
2018-05-25T17:45:52.584Z,17.60
2018-05-25T17:48:20.372Z,21.03
2018-05-25T17:50:47.949Z,18.80
2018-05-25T17:53:15.564Z,23.53
2018-05-25T17:55:43.202Z,20.30
2018-05-25T17:58:10.846Z,18.37
2018-05-25T18:00:38.998Z,24.47
2018-05-25T18:03:06.712Z,51.77
2018-05-25T18:05:34.303Z,21.93
2018-05-25T18:08:01.868Z,19.20
2018-05-25T18:10:29.637Z,54.20
2018-05-25T18:12:57.196Z,36.07
2018-05-25T18:15:24.752Z,37.70
2018-05-25T18:17:52.312Z,33.20
2018-05-25T18:20:19.883Z,33.67
2018-05-25T18:22:47.448Z,38.70
2018-05-25T18:25:15.004Z,40.17
2018-05-25T18:27:42.636Z,34.47
2018-05-25T18:30:10.188Z,32.90
2018-05-25T18:32:37.801Z,30.67
2018-05-25T18:35:05.428Z,31.67
2018-05-25T18:37:33.033Z,27.77
2018-05-25T18:40:00.600Z,32.37
2018-05-25T18:42:28.973Z,26.80
2018-05-25T18:44:56.591Z,32.03
2018-05-25T18:47:24.301Z,26.60
2018-05-25T18:49:52.035Z,23.30
2018-05-25T18:52:19.799Z,21.50
2018-05-25T18:54:47.563Z,22.57
2018-05-25T18:57:15.136Z,21.13
2018-05-25T18:59:42.689Z,19.43
2018-05-25T19:02:10.517Z,24.63
2018-05-25T19:04:38.082Z,22.57
2018-05-25T19:07:05.856Z,24.03
2018-05-25T19:09:33.577Z,25.90
2018-05-25T19:12:01.130Z,29.23
2018-05-25T19:14:28.745Z,26.20
2018-05-25T19:16:56.296Z,24.87
2018-05-25T19:19:23.996Z,26.03
2018-05-25T19:21:51.668Z,24.83
2018-05-25T19:24:19.212Z,30.97
2018-05-25T19:26:46.830Z,34.17
2018-05-25T19:29:14.388Z,27.23
2018-05-25T19:31:42.032Z,29.30
2018-05-25T19:34:09.628Z,21.93
2018-05-25T19:36:37.662Z,28.10
2018-05-25T19:39:06.173Z,34.37
2018-05-25T19:41:33.809Z,26.83
2018-05-25T19:44:01.422Z,31.67
2018-05-25T19:46:28.944Z,28.33
2018-05-25T19:48:56.672Z,23.93
2018-05-25T19:51:24.485Z,30.10
2018-05-25T19:53:52.324Z,25.93
2018-05-25T19:56:20.308Z,22.57
2018-05-25T19:58:47.920Z,26.03
2018-05-25T20:01:15.488Z,29.77
2018-05-25T20:03:43.161Z,28.27
2018-05-25T20:06:10.764Z,52.13
2018-05-25T20:08:38.548Z,36.70
2018-05-25T20:11:06.366Z,31.67
2018-05-25T20:13:33.933Z,29.17
2018-05-25T20:16:01.558Z,28.27
2018-05-25T20:18:29.421Z,31.23
2018-05-25T20:20:57.141Z,27.27
2018-05-25T20:23:24.790Z,31.00
2018-05-25T20:25:52.577Z,29.07
2018-05-25T20:28:20.244Z,45.17
2018-05-25T20:30:47.813Z,29.03
2018-05-25T20:33:15.421Z,26.53
2018-05-25T20:35:43.122Z,30.83
2018-05-25T20:38:10.693Z,25.03
2018-05-25T20:40:38.264Z,28.03
2018-05-25T20:43:05.931Z,29.70
2018-05-25T20:45:33.501Z,15.87
2018-05-25T20:48:01.048Z,22.20
2018-05-25T20:50:28.621Z,19.97
2018-05-25T20:52:56.170Z,25.97
2018-05-25T20:55:23.840Z,25.67
2018-05-25T20:57:51.511Z,19.40
2018-05-25T21:00:19.061Z,18.90
2018-05-25T21:02:46.621Z,24.47
2018-05-25T21:05:14.221Z,25.07
2018-05-25T21:07:41.897Z,18.53
2018-05-25T21:10:09.456Z,23.93
2018-05-25T21:12:37.143Z,22.43
2018-05-25T21:15:04.724Z,24.33
2018-05-25T21:17:32.329Z,22.47
2018-05-25T21:20:00.006Z,21.90
2018-05-25T21:22:27.565Z,24.00
2018-05-25T21:24:55.229Z,22.93
2018-05-25T21:27:22.848Z,20.90
2018-05-25T21:29:50.457Z,24.20
2018-05-25T21:32:18.077Z,21.33
2018-05-25T21:34:45.640Z,48.20
2018-05-25T21:37:13.357Z,35.00
2018-05-25T21:39:40.884Z,193.17
2018-05-25T21:42:08.444Z,89.70
2018-05-25T21:44:36.145Z,137.40
2018-05-25T21:47:03.761Z,45.07
2018-05-25T21:49:31.586Z,24.90
2018-05-25T21:51:59.136Z,27.37
2018-05-25T21:54:26.760Z,23.43
2018-05-25T21:56:54.319Z,19.73
2018-05-25T21:59:21.957Z,24.00
2018-05-25T22:01:49.532Z,22.63
2018-05-25T22:04:17.090Z,23.27
2018-05-25T22:06:44.753Z,21.00
2018-05-25T22:09:12.420Z,19.53
2018-05-25T22:11:40.049Z,20.30
2018-05-25T22:14:07.911Z,19.80
2018-05-25T22:16:35.689Z,19.10
2018-05-25T22:19:03.272Z,19.30
2018-05-25T22:21:31.123Z,20.10
2018-05-25T22:23:58.680Z,18.93
2018-05-25T22:26:26.467Z,22.87
2018-05-25T22:28:54.085Z,20.03
2018-05-25T22:31:21.750Z,17.80
2018-05-25T22:33:49.332Z,19.27
2018-05-25T22:36:16.881Z,16.17
2018-05-25T22:38:44.497Z,19.27
2018-05-25T22:41:12.169Z,21.33
2018-05-25T22:43:51.476Z,27.57
2018-05-25T22:46:30.976Z,20.47
2018-05-25T22:49:10.548Z,17.80
2018-05-25T22:51:49.897Z,19.60
2018-05-25T22:54:33.989Z,19.40
2018-05-25T22:57:01.560Z,21.40
2018-05-25T22:59:29.298Z,19.70
2018-05-25T23:01:56.868Z,22.20
2018-05-25T23:04:24.552Z,23.53
2018-05-25T23:06:52.268Z,20.93
2018-05-25T23:09:19.812Z,19.17
2018-05-25T23:11:47.489Z,23.13
2018-05-25T23:14:15.032Z,18.00
2018-05-25T23:16:42.594Z,24.97
2018-05-25T23:19:10.261Z,18.17
2018-05-25T23:21:37.812Z,19.63
2018-05-25T23:24:05.497Z,17.47
2018-05-25T23:26:33.061Z,19.50
2018-05-25T23:29:00.682Z,23.40
2018-05-25T23:31:28.241Z,16.27
2018-05-25T23:33:55.865Z,20.47
2018-05-25T23:36:23.685Z,20.07
2018-05-25T23:38:51.245Z,18.47
2018-05-25T23:41:18.805Z,17.03
2018-05-25T23:43:46.405Z,18.37
2018-05-25T23:46:14.069Z,17.50
2018-05-25T23:48:41.685Z,17.93
2018-05-25T23:51:09.395Z,19.97
2018-05-25T23:53:37.212Z,18.97
2018-05-25T23:56:04.779Z,16.53
2018-05-25T23:58:32.652Z,24.10
